sensor_id;sensor_type;location;lat;lon;timestamp;P1;durP1;ratioP1;P2;durP2;ratioP2
76417;SDS011;65250;47.602;19.002;2023-03-21T00:01:55;10.85;;;6.53;;
76417;SDS011;65250;47.602;19.002;2023-03-21T00:04:22;9.68;;;5.90;;
76417;SDS011;65250;47.602;19.002;2023-03-21T00:06:50;10.90;;;6.23;;
76417;SDS011;65250;47.602;19.002;2023-03-21T00:09:18;13.43;;;6.25;;
76417;SDS011;65250;47.602;19.002;2023-03-21T00:11:45;9.00;;;5.95;;
76417;SDS011;65250;47.602;19.002;2023-03-21T00:14:12;8.18;;;6.00;;
76417;SDS011;65250;47.602;19.002;2023-03-21T00:16:41;9.00;;;6.25;;
76417;SDS011;65250;47.602;19.002;2023-03-21T00:39:10;9.63;;;6.43;;
76417;SDS011;65250;47.602;19.002;2023-03-21T00:41:37;11.82;;;7.00;;
76417;SDS011;65250;47.602;19.002;2023-03-21T00:44:09;9.60;;;7.28;;
76417;SDS011;65250;47.602;19.002;2023-03-21T00:46:39;9.48;;;6.57;;
76417;SDS011;65250;47.602;19.002;2023-03-21T00:49:19;9.40;;;6.82;;
76417;SDS011;65250;47.602;19.002;2023-03-21T00:51:46;8.50;;;6.73;;
76417;SDS011;65250;47.602;19.002;2023-03-21T00:54:16;9.23;;;6.43;;
76417;SDS011;65250;47.602;19.002;2023-03-21T00:56:43;17.58;;;6.72;;
76417;SDS011;65250;47.602;19.002;2023-03-21T00:59:10;10.93;;;6.55;;
76417;SDS011;65250;47.602;19.002;2023-03-21T01:01:37;10.57;;;6.75;;
76417;SDS011;65250;47.602;19.002;2023-03-21T01:04:04;10.33;;;6.93;;
76417;SDS011;65250;47.602;19.002;2023-03-21T01:06:34;9.07;;;6.47;;
76417;SDS011;65250;47.602;19.002;2023-03-21T01:09:06;14.90;;;6.88;;
76417;SDS011;65250;47.602;19.002;2023-03-21T01:11:36;10.63;;;6.78;;
76417;SDS011;65250;47.602;19.002;2023-03-21T01:14:03;8.13;;;6.00;;
76417;SDS011;65250;47.602;19.002;2023-03-21T01:16:47;11.43;;;6.90;;
76417;SDS011;65250;47.602;19.002;2023-03-21T01:19:16;10.57;;;7.13;;
76417;SDS011;65250;47.602;19.002;2023-03-21T01:21:54;11.52;;;7.10;;
76417;SDS011;65250;47.602;19.002;2023-03-21T01:24:22;11.05;;;7.75;;
76417;SDS011;65250;47.602;19.002;2023-03-21T01:26:48;13.43;;;6.57;;
76417;SDS011;65250;47.602;19.002;2023-03-21T01:29:15;9.60;;;6.47;;
76417;SDS011;65250;47.602;19.002;2023-03-21T01:31:42;14.18;;;7.88;;
76417;SDS011;65250;47.602;19.002;2023-03-21T01:34:09;9.95;;;6.75;;
76417;SDS011;65250;47.602;19.002;2023-03-21T01:36:35;11.88;;;7.28;;
76417;SDS011;65250;47.602;19.002;2023-03-21T01:39:03;9.65;;;6.95;;
76417;SDS011;65250;47.602;19.002;2023-03-21T01:41:32;11.60;;;7.20;;
76417;SDS011;65250;47.602;19.002;2023-03-21T01:44:12;8.38;;;6.30;;
76417;SDS011;65250;47.602;19.002;2023-03-21T01:49:35;8.82;;;6.38;;
76417;SDS011;65250;47.602;19.002;2023-03-21T01:52:06;8.93;;;6.50;;
76417;SDS011;65250;47.602;19.002;2023-03-21T01:54:39;12.07;;;6.40;;
76417;SDS011;65250;47.602;19.002;2023-03-21T01:57:08;10.82;;;7.32;;
76417;SDS011;65250;47.602;19.002;2023-03-21T01:59:47;10.70;;;6.50;;
76417;SDS011;65250;47.602;19.002;2023-03-21T02:02:26;10.57;;;6.95;;
76417;SDS011;65250;47.602;19.002;2023-03-21T02:04:54;11.88;;;7.82;;
76417;SDS011;65250;47.602;19.002;2023-03-21T02:07:24;14.10;;;7.70;;
76417;SDS011;65250;47.602;19.002;2023-03-21T02:09:54;10.93;;;7.18;;
76417;SDS011;65250;47.602;19.002;2023-03-21T02:12:21;12.88;;;7.00;;
76417;SDS011;65250;47.602;19.002;2023-03-21T02:14:48;11.27;;;7.30;;
76417;SDS011;65250;47.602;19.002;2023-03-21T02:28:27;10.95;;;6.88;;
76417;SDS011;65250;47.602;19.002;2023-03-21T02:41:32;10.15;;;6.38;;
76417;SDS011;65250;47.602;19.002;2023-03-21T02:49:41;9.45;;;6.32;;
76417;SDS011;65250;47.602;19.002;2023-03-21T02:52:11;9.15;;;6.35;;
76417;SDS011;65250;47.602;19.002;2023-03-21T02:54:57;9.02;;;6.22;;
76417;SDS011;65250;47.602;19.002;2023-03-21T02:57:25;8.77;;;5.68;;
76417;SDS011;65250;47.602;19.002;2023-03-21T03:00:05;8.63;;;5.70;;
76417;SDS011;65250;47.602;19.002;2023-03-21T03:02:42;9.40;;;6.60;;
76417;SDS011;65250;47.602;19.002;2023-03-21T03:05:11;10.52;;;6.13;;
76417;SDS011;65250;47.602;19.002;2023-03-21T03:08:09;8.77;;;5.90;;
76417;SDS011;65250;47.602;19.002;2023-03-21T03:18:49;8.90;;;6.35;;
76417;SDS011;65250;47.602;19.002;2023-03-21T03:21:19;8.70;;;5.80;;
76417;SDS011;65250;47.602;19.002;2023-03-21T03:26:59;9.10;;;6.40;;
76417;SDS011;65250;47.602;19.002;2023-03-21T03:29:31;8.98;;;5.72;;
76417;SDS011;65250;47.602;19.002;2023-03-21T03:34:34;8.32;;;5.22;;
76417;SDS011;65250;47.602;19.002;2023-03-21T03:37:07;8.00;;;5.53;;
76417;SDS011;65250;47.602;19.002;2023-03-21T03:39:40;8.43;;;5.30;;
76417;SDS011;65250;47.602;19.002;2023-03-21T03:42:16;8.27;;;5.07;;
76417;SDS011;65250;47.602;19.002;2023-03-21T03:44:54;8.18;;;5.28;;
76417;SDS011;65250;47.602;19.002;2023-03-21T03:50:31;8.40;;;5.32;;
76417;SDS011;65250;47.602;19.002;2023-03-21T03:55:44;6.55;;;5.13;;
76417;SDS011;65250;47.602;19.002;2023-03-21T03:58:12;7.82;;;5.10;;
76417;SDS011;65250;47.602;19.002;2023-03-21T04:00:50;7.82;;;4.88;;
76417;SDS011;65250;47.602;19.002;2023-03-21T04:03:17;7.32;;;5.00;;
76417;SDS011;65250;47.602;19.002;2023-03-21T04:05:45;7.97;;;4.87;;
76417;SDS011;65250;47.602;19.002;2023-03-21T04:08:12;6.70;;;4.50;;
76417;SDS011;65250;47.602;19.002;2023-03-21T04:10:40;7.95;;;5.10;;
76417;SDS011;65250;47.602;19.002;2023-03-21T04:13:07;6.45;;;4.68;;
76417;SDS011;65250;47.602;19.002;2023-03-21T04:15:34;9.13;;;4.53;;
76417;SDS011;65250;47.602;19.002;2023-03-21T04:18:01;7.00;;;4.60;;
76417;SDS011;65250;47.602;19.002;2023-03-21T04:20:28;6.18;;;4.43;;
76417;SDS011;65250;47.602;19.002;2023-03-21T04:23:09;6.72;;;4.72;;
76417;SDS011;65250;47.602;19.002;2023-03-21T04:25:36;6.40;;;4.70;;
76417;SDS011;65250;47.602;19.002;2023-03-21T04:28:16;7.70;;;4.72;;
76417;SDS011;65250;47.602;19.002;2023-03-21T04:30:43;6.70;;;4.83;;
76417;SDS011;65250;47.602;19.002;2023-03-21T04:33:26;6.32;;;4.57;;
76417;SDS011;65250;47.602;19.002;2023-03-21T04:35:53;6.45;;;5.10;;
76417;SDS011;65250;47.602;19.002;2023-03-21T04:38:22;9.45;;;5.65;;
76417;SDS011;65250;47.602;19.002;2023-03-21T04:40:49;7.57;;;5.20;;
76417;SDS011;65250;47.602;19.002;2023-03-21T04:43:15;8.53;;;5.70;;
76417;SDS011;65250;47.602;19.002;2023-03-21T04:45:42;7.50;;;5.07;;
76417;SDS011;65250;47.602;19.002;2023-03-21T04:48:09;8.93;;;5.03;;
76417;SDS011;65250;47.602;19.002;2023-03-21T04:50:36;7.10;;;4.95;;
76417;SDS011;65250;47.602;19.002;2023-03-21T04:53:03;7.55;;;5.10;;
76417;SDS011;65250;47.602;19.002;2023-03-21T04:55:30;7.57;;;4.93;;
76417;SDS011;65250;47.602;19.002;2023-03-21T04:57:57;7.47;;;4.85;;
76417;SDS011;65250;47.602;19.002;2023-03-21T05:00:25;7.63;;;5.25;;
76417;SDS011;65250;47.602;19.002;2023-03-21T05:02:52;6.85;;;5.03;;
76417;SDS011;65250;47.602;19.002;2023-03-21T05:05:19;8.52;;;5.88;;
76417;SDS011;65250;47.602;19.002;2023-03-21T05:07:46;6.53;;;4.93;;
76417;SDS011;65250;47.602;19.002;2023-03-21T05:10:12;7.75;;;5.32;;
76417;SDS011;65250;47.602;19.002;2023-03-21T05:12:39;15.32;;;7.22;;
76417;SDS011;65250;47.602;19.002;2023-03-21T05:15:06;14.40;;;8.30;;
76417;SDS011;65250;47.602;19.002;2023-03-21T05:17:34;16.55;;;9.48;;
76417;SDS011;65250;47.602;19.002;2023-03-21T05:20:00;14.20;;;8.60;;
76417;SDS011;65250;47.602;19.002;2023-03-21T05:22:27;12.00;;;7.35;;
76417;SDS011;65250;47.602;19.002;2023-03-21T05:24:54;8.18;;;6.18;;
76417;SDS011;65250;47.602;19.002;2023-03-21T05:27:21;7.25;;;5.28;;
76417;SDS011;65250;47.602;19.002;2023-03-21T05:30:05;7.97;;;5.22;;
76417;SDS011;65250;47.602;19.002;2023-03-21T05:32:33;7.47;;;5.23;;
76417;SDS011;65250;47.602;19.002;2023-03-21T05:35:00;7.93;;;5.78;;
76417;SDS011;65250;47.602;19.002;2023-03-21T05:37:27;9.80;;;5.63;;
76417;SDS011;65250;47.602;19.002;2023-03-21T05:39:54;7.25;;;5.30;;
76417;SDS011;65250;47.602;19.002;2023-03-21T05:42:21;8.35;;;5.47;;
76417;SDS011;65250;47.602;19.002;2023-03-21T05:44:48;8.17;;;5.20;;
76417;SDS011;65250;47.602;19.002;2023-03-21T05:47:15;7.30;;;4.88;;
76417;SDS011;65250;47.602;19.002;2023-03-21T05:49:44;8.27;;;5.55;;
76417;SDS011;65250;47.602;19.002;2023-03-21T05:52:11;8.77;;;5.38;;
76417;SDS011;65250;47.602;19.002;2023-03-21T05:54:38;6.10;;;4.32;;
76417;SDS011;65250;47.602;19.002;2023-03-21T05:57:05;6.50;;;4.43;;
76417;SDS011;65250;47.602;19.002;2023-03-21T05:59:32;6.93;;;5.00;;
76417;SDS011;65250;47.602;19.002;2023-03-21T06:01:59;8.90;;;4.65;;
76417;SDS011;65250;47.602;19.002;2023-03-21T06:04:26;6.63;;;4.75;;
76417;SDS011;65250;47.602;19.002;2023-03-21T06:06:53;7.15;;;5.20;;
76417;SDS011;65250;47.602;19.002;2023-03-21T06:09:20;8.90;;;5.73;;
76417;SDS011;65250;47.602;19.002;2023-03-21T06:11:49;9.00;;;5.93;;
76417;SDS011;65250;47.602;19.002;2023-03-21T06:14:16;10.45;;;6.28;;
76417;SDS011;65250;47.602;19.002;2023-03-21T06:16:43;11.63;;;5.53;;
76417;SDS011;65250;47.602;19.002;2023-03-21T06:19:10;7.72;;;5.00;;
76417;SDS011;65250;47.602;19.002;2023-03-21T06:21:37;6.20;;;4.80;;
76417;SDS011;65250;47.602;19.002;2023-03-21T06:24:04;5.65;;;4.40;;
76417;SDS011;65250;47.602;19.002;2023-03-21T06:26:31;5.57;;;4.72;;
76417;SDS011;65250;47.602;19.002;2023-03-21T06:28:58;8.40;;;4.32;;
76417;SDS011;65250;47.602;19.002;2023-03-21T06:31:24;5.57;;;4.97;;
76417;SDS011;65250;47.602;19.002;2023-03-21T06:33:52;6.70;;;4.60;;
76417;SDS011;65250;47.602;19.002;2023-03-21T06:36:19;4.95;;;3.67;;
76417;SDS011;65250;47.602;19.002;2023-03-21T06:38:45;10.60;;;4.85;;
76417;SDS011;65250;47.602;19.002;2023-03-21T06:41:14;13.88;;;5.05;;
76417;SDS011;65250;47.602;19.002;2023-03-21T06:43:42;8.95;;;4.88;;
76417;SDS011;65250;47.602;19.002;2023-03-21T06:46:09;10.47;;;5.10;;
76417;SDS011;65250;47.602;19.002;2023-03-21T06:48:37;14.48;;;4.40;;
76417;SDS011;65250;47.602;19.002;2023-03-21T06:51:10;6.38;;;4.68;;
76417;SDS011;65250;47.602;19.002;2023-03-21T06:53:38;7.70;;;4.60;;
76417;SDS011;65250;47.602;19.002;2023-03-21T06:56:09;5.63;;;4.20;;
76417;SDS011;65250;47.602;19.002;2023-03-21T06:58:37;7.70;;;4.50;;
76417;SDS011;65250;47.602;19.002;2023-03-21T07:01:04;4.65;;;4.03;;
76417;SDS011;65250;47.602;19.002;2023-03-21T07:03:31;12.55;;;4.13;;
76417;SDS011;65250;47.602;19.002;2023-03-21T07:06:03;7.28;;;4.43;;
76417;SDS011;65250;47.602;19.002;2023-03-21T07:08:32;5.00;;;4.25;;
76417;SDS011;65250;47.602;19.002;2023-03-21T07:11:00;5.50;;;4.67;;
76417;SDS011;65250;47.602;19.002;2023-03-21T07:13:27;5.50;;;4.47;;
76417;SDS011;65250;47.602;19.002;2023-03-21T07:15:54;6.07;;;4.05;;
76417;SDS011;65250;47.602;19.002;2023-03-21T07:18:20;5.03;;;4.20;;
76417;SDS011;65250;47.602;19.002;2023-03-21T07:20:48;6.80;;;4.90;;
76417;SDS011;65250;47.602;19.002;2023-03-21T07:23:17;8.47;;;5.03;;
76417;SDS011;65250;47.602;19.002;2023-03-21T07:25:46;8.00;;;4.72;;
76417;SDS011;65250;47.602;19.002;2023-03-21T07:28:14;8.98;;;4.50;;
76417;SDS011;65250;47.602;19.002;2023-03-21T07:30:42;7.43;;;4.80;;
76417;SDS011;65250;47.602;19.002;2023-03-21T07:33:09;5.70;;;4.32;;
76417;SDS011;65250;47.602;19.002;2023-03-21T07:35:36;6.63;;;4.83;;
76417;SDS011;65250;47.602;19.002;2023-03-21T07:38:04;5.53;;;4.10;;
76417;SDS011;65250;47.602;19.002;2023-03-21T07:40:31;5.50;;;4.13;;
76417;SDS011;65250;47.602;19.002;2023-03-21T07:42:58;6.72;;;4.00;;
76417;SDS011;65250;47.602;19.002;2023-03-21T07:45:24;12.55;;;3.47;;
76417;SDS011;65250;47.602;19.002;2023-03-21T07:47:52;7.03;;;3.93;;
76417;SDS011;65250;47.602;19.002;2023-03-21T07:50:19;6.93;;;3.78;;
76417;SDS011;65250;47.602;19.002;2023-03-21T07:52:47;15.55;;;3.78;;
76417;SDS011;65250;47.602;19.002;2023-03-21T07:55:14;6.05;;;4.45;;
76417;SDS011;65250;47.602;19.002;2023-03-21T07:57:42;10.10;;;3.80;;
76417;SDS011;65250;47.602;19.002;2023-03-21T08:00:09;14.43;;;3.83;;
76417;SDS011;65250;47.602;19.002;2023-03-21T08:02:38;9.40;;;4.32;;
76417;SDS011;65250;47.602;19.002;2023-03-21T08:05:05;9.30;;;4.25;;
76417;SDS011;65250;47.602;19.002;2023-03-21T08:07:32;5.93;;;4.18;;
76417;SDS011;65250;47.602;19.002;2023-03-21T08:09:59;10.65;;;5.18;;
76417;SDS011;65250;47.602;19.002;2023-03-21T08:12:26;15.03;;;4.03;;
76417;SDS011;65250;47.602;19.002;2023-03-21T08:14:54;7.38;;;4.72;;
76417;SDS011;65250;47.602;19.002;2023-03-21T08:17:21;9.00;;;3.78;;
76417;SDS011;65250;47.602;19.002;2023-03-21T08:19:48;6.03;;;4.40;;
76417;SDS011;65250;47.602;19.002;2023-03-21T08:22:14;4.88;;;4.05;;
76417;SDS011;65250;47.602;19.002;2023-03-21T08:24:41;6.57;;;4.30;;
76417;SDS011;65250;47.602;19.002;2023-03-21T08:27:08;8.25;;;4.05;;
76417;SDS011;65250;47.602;19.002;2023-03-21T08:29:35;5.85;;;4.03;;
76417;SDS011;65250;47.602;19.002;2023-03-21T08:32:05;11.82;;;4.63;;
76417;SDS011;65250;47.602;19.002;2023-03-21T08:34:32;8.52;;;3.97;;
76417;SDS011;65250;47.602;19.002;2023-03-21T08:36:59;5.87;;;4.47;;
76417;SDS011;65250;47.602;19.002;2023-03-21T08:39:26;5.53;;;4.60;;
76417;SDS011;65250;47.602;19.002;2023-03-21T08:41:53;5.50;;;4.25;;
76417;SDS011;65250;47.602;19.002;2023-03-21T08:44:20;7.65;;;4.70;;
76417;SDS011;65250;47.602;19.002;2023-03-21T08:46:47;12.18;;;5.03;;
76417;SDS011;65250;47.602;19.002;2023-03-21T08:49:14;18.20;;;4.10;;
76417;SDS011;65250;47.602;19.002;2023-03-21T08:51:41;11.50;;;4.10;;
76417;SDS011;65250;47.602;19.002;2023-03-21T08:54:20;6.40;;;4.20;;
76417;SDS011;65250;47.602;19.002;2023-03-21T08:56:47;7.63;;;5.28;;
76417;SDS011;65250;47.602;19.002;2023-03-21T08:59:16;9.55;;;4.25;;
76417;SDS011;65250;47.602;19.002;2023-03-21T09:01:42;6.00;;;4.10;;
76417;SDS011;65250;47.602;19.002;2023-03-21T09:04:14;9.63;;;3.95;;
76417;SDS011;65250;47.602;19.002;2023-03-21T09:06:45;5.60;;;4.00;;
76417;SDS011;65250;47.602;19.002;2023-03-21T09:09:17;6.40;;;4.10;;
76417;SDS011;65250;47.602;19.002;2023-03-21T09:11:45;6.95;;;4.00;;
76417;SDS011;65250;47.602;19.002;2023-03-21T09:14:12;9.10;;;4.20;;
76417;SDS011;65250;47.602;19.002;2023-03-21T09:16:39;8.10;;;3.97;;
76417;SDS011;65250;47.602;19.002;2023-03-21T09:19:06;10.65;;;4.68;;
76417;SDS011;65250;47.602;19.002;2023-03-21T09:21:34;6.00;;;4.32;;
76417;SDS011;65250;47.602;19.002;2023-03-21T09:24:02;6.22;;;4.10;;
76417;SDS011;65250;47.602;19.002;2023-03-21T09:26:32;6.03;;;4.63;;
76417;SDS011;65250;47.602;19.002;2023-03-21T09:28:59;13.30;;;4.70;;
76417;SDS011;65250;47.602;19.002;2023-03-21T09:31:26;9.50;;;4.90;;
76417;SDS011;65250;47.602;19.002;2023-03-21T09:33:54;7.57;;;5.72;;
76417;SDS011;65250;47.602;19.002;2023-03-21T09:36:23;6.40;;;5.60;;
76417;SDS011;65250;47.602;19.002;2023-03-21T09:38:53;5.17;;;4.67;;
76417;SDS011;65250;47.602;19.002;2023-03-21T09:41:38;4.75;;;4.35;;
76417;SDS011;65250;47.602;19.002;2023-03-21T09:44:38;5.97;;;5.35;;
76417;SDS011;65250;47.602;19.002;2023-03-21T09:47:28;6.72;;;5.43;;
76417;SDS011;65250;47.602;19.002;2023-03-21T09:50:01;8.60;;;5.55;;
76417;SDS011;65250;47.602;19.002;2023-03-21T09:52:45;12.13;;;5.30;;
76417;SDS011;65250;47.602;19.002;2023-03-21T09:55:20;10.98;;;4.65;;
76417;SDS011;65250;47.602;19.002;2023-03-21T09:57:50;9.82;;;4.55;;
76417;SDS011;65250;47.602;19.002;2023-03-21T10:00:42;14.23;;;4.80;;
76417;SDS011;65250;47.602;19.002;2023-03-21T10:03:19;6.20;;;4.05;;
76417;SDS011;65250;47.602;19.002;2023-03-21T10:05:52;4.97;;;4.20;;
76417;SDS011;65250;47.602;19.002;2023-03-21T10:08:25;5.13;;;3.55;;
76417;SDS011;65250;47.602;19.002;2023-03-21T10:10:58;4.22;;;3.78;;
76417;SDS011;65250;47.602;19.002;2023-03-21T10:13:28;5.47;;;4.05;;
76417;SDS011;65250;47.602;19.002;2023-03-21T10:16:26;6.55;;;3.97;;
76417;SDS011;65250;47.602;19.002;2023-03-21T10:18:56;5.07;;;3.37;;
76417;SDS011;65250;47.602;19.002;2023-03-21T10:21:25;7.93;;;4.38;;
76417;SDS011;65250;47.602;19.002;2023-03-21T10:24:17;7.75;;;3.95;;
76417;SDS011;65250;47.602;19.002;2023-03-21T10:26:46;6.15;;;3.30;;
76417;SDS011;65250;47.602;19.002;2023-03-21T10:29:14;6.22;;;3.88;;
76417;SDS011;65250;47.602;19.002;2023-03-21T10:31:42;6.30;;;4.40;;
76417;SDS011;65250;47.602;19.002;2023-03-21T10:37:01;4.55;;;3.10;;
76417;SDS011;65250;47.602;19.002;2023-03-21T10:39:36;6.50;;;2.85;;
76417;SDS011;65250;47.602;19.002;2023-03-21T10:42:05;3.55;;;3.17;;
76417;SDS011;65250;47.602;19.002;2023-03-21T10:44:32;9.87;;;3.30;;
76417;SDS011;65250;47.602;19.002;2023-03-21T10:49:32;7.75;;;3.42;;
76417;SDS011;65250;47.602;19.002;2023-03-21T10:52:19;11.73;;;3.58;;
76417;SDS011;65250;47.602;19.002;2023-03-21T10:54:47;9.80;;;4.03;;
76417;SDS011;65250;47.602;19.002;2023-03-21T10:57:19;6.63;;;4.03;;
76417;SDS011;65250;47.602;19.002;2023-03-21T10:59:50;9.85;;;4.40;;
76417;SDS011;65250;47.602;19.002;2023-03-21T11:02:24;8.45;;;5.43;;
76417;SDS011;65250;47.602;19.002;2023-03-21T11:04:55;9.00;;;4.63;;
76417;SDS011;65250;47.602;19.002;2023-03-21T11:07:26;9.02;;;5.22;;
76417;SDS011;65250;47.602;19.002;2023-03-21T11:09:57;12.37;;;4.57;;
76417;SDS011;65250;47.602;19.002;2023-03-21T11:12:35;7.85;;;4.45;;
76417;SDS011;65250;47.602;19.002;2023-03-21T11:15:20;14.70;;;4.53;;
76417;SDS011;65250;47.602;19.002;2023-03-21T11:18:13;5.90;;;4.63;;
76417;SDS011;65250;47.602;19.002;2023-03-21T11:20:48;11.05;;;4.47;;
76417;SDS011;65250;47.602;19.002;2023-03-21T11:23:17;7.43;;;5.10;;
76417;SDS011;65250;47.602;19.002;2023-03-21T11:25:47;7.85;;;4.80;;
76417;SDS011;65250;47.602;19.002;2023-03-21T11:28:20;10.10;;;4.80;;
76417;SDS011;65250;47.602;19.002;2023-03-21T11:30:56;7.25;;;4.72;;
76417;SDS011;65250;47.602;19.002;2023-03-21T11:33:25;7.57;;;4.45;;
76417;SDS011;65250;47.602;19.002;2023-03-21T11:35:58;6.70;;;4.13;;
76417;SDS011;65250;47.602;19.002;2023-03-21T11:38:35;15.60;;;5.05;;
76417;SDS011;65250;47.602;19.002;2023-03-21T11:41:04;7.15;;;4.10;;
76417;SDS011;65250;47.602;19.002;2023-03-21T11:43:38;9.85;;;4.50;;
76417;SDS011;65250;47.602;19.002;2023-03-21T11:46:09;7.90;;;4.03;;
76417;SDS011;65250;47.602;19.002;2023-03-21T11:48:43;17.67;;;4.30;;
76417;SDS011;65250;47.602;19.002;2023-03-21T11:51:28;10.18;;;5.53;;
76417;SDS011;65250;47.602;19.002;2023-03-21T11:54:14;10.88;;;4.53;;
76417;SDS011;65250;47.602;19.002;2023-03-21T11:56:46;8.05;;;4.53;;
76417;SDS011;65250;47.602;19.002;2023-03-21T12:04:18;9.68;;;4.63;;
76417;SDS011;65250;47.602;19.002;2023-03-21T12:07:40;8.43;;;3.90;;
76417;SDS011;65250;47.602;19.002;2023-03-21T12:10:30;7.13;;;5.43;;
76417;SDS011;65250;47.602;19.002;2023-03-21T12:13:12;8.48;;;5.57;;
76417;SDS011;65250;47.602;19.002;2023-03-21T12:18:42;7.00;;;5.00;;
76417;SDS011;65250;47.602;19.002;2023-03-21T12:26:27;9.00;;;4.53;;
76417;SDS011;65250;47.602;19.002;2023-03-21T12:41:44;7.03;;;3.57;;
76417;SDS011;65250;47.602;19.002;2023-03-21T12:44:20;9.65;;;3.30;;
76417;SDS011;65250;47.602;19.002;2023-03-21T12:46:49;4.90;;;2.42;;
76417;SDS011;65250;47.602;19.002;2023-03-21T12:52:09;4.07;;;3.13;;
76417;SDS011;65250;47.602;19.002;2023-03-21T12:54:43;3.00;;;2.20;;
76417;SDS011;65250;47.602;19.002;2023-03-21T12:57:40;11.05;;;2.80;;
76417;SDS011;65250;47.602;19.002;2023-03-21T13:00:24;8.50;;;2.95;;
76417;SDS011;65250;47.602;19.002;2023-03-21T13:07:59;11.90;;;2.70;;
76417;SDS011;65250;47.602;19.002;2023-03-21T13:10:29;7.00;;;2.70;;
76417;SDS011;65250;47.602;19.002;2023-03-21T13:32:45;7.35;;;2.80;;
76417;SDS011;65250;47.602;19.002;2023-03-21T13:37:57;9.13;;;3.80;;
76417;SDS011;65250;47.602;19.002;2023-03-21T13:40:43;11.13;;;4.53;;
76417;SDS011;65250;47.602;19.002;2023-03-21T13:46:13;5.30;;;4.28;;
76417;SDS011;65250;47.602;19.002;2023-03-21T13:51:37;4.90;;;4.40;;
76417;SDS011;65250;47.602;19.002;2023-03-21T13:59:16;6.53;;;4.20;;
76417;SDS011;65250;47.602;19.002;2023-03-21T14:04:28;21.45;;;5.57;;
76417;SDS011;65250;47.602;19.002;2023-03-21T14:07:22;5.22;;;4.30;;
76417;SDS011;65250;47.602;19.002;2023-03-21T14:09:52;5.25;;;4.80;;
76417;SDS011;65250;47.602;19.002;2023-03-21T14:12:21;6.80;;;4.85;;
76417;SDS011;65250;47.602;19.002;2023-03-21T14:14:51;18.73;;;5.87;;
76417;SDS011;65250;47.602;19.002;2023-03-21T14:17:22;6.00;;;5.50;;
76417;SDS011;65250;47.602;19.002;2023-03-21T14:22:39;6.40;;;6.00;;
76417;SDS011;65250;47.602;19.002;2023-03-21T14:25:11;6.22;;;5.72;;
76417;SDS011;65250;47.602;19.002;2023-03-21T14:27:40;6.40;;;5.67;;
76417;SDS011;65250;47.602;19.002;2023-03-21T14:30:18;6.43;;;5.93;;
76417;SDS011;65250;47.602;19.002;2023-03-21T14:32:47;5.97;;;5.57;;
76417;SDS011;65250;47.602;19.002;2023-03-21T14:35:14;5.65;;;4.03;;
76417;SDS011;65250;47.602;19.002;2023-03-21T14:37:42;5.68;;;4.82;;
76417;SDS011;65250;47.602;19.002;2023-03-21T14:40:23;5.20;;;4.70;;
76417;SDS011;65250;47.602;19.002;2023-03-21T14:42:52;10.80;;;4.47;;
76417;SDS011;65250;47.602;19.002;2023-03-21T14:45:26;8.45;;;4.30;;
76417;SDS011;65250;47.602;19.002;2023-03-21T14:48:04;7.00;;;4.20;;
76417;SDS011;65250;47.602;19.002;2023-03-21T14:53:21;16.80;;;5.13;;
76417;SDS011;65250;47.602;19.002;2023-03-21T14:55:58;7.40;;;4.97;;
76417;SDS011;65250;47.602;19.002;2023-03-21T14:58:33;13.18;;;4.82;;
76417;SDS011;65250;47.602;19.002;2023-03-21T15:01:11;11.43;;;5.13;;
76417;SDS011;65250;47.602;19.002;2023-03-21T15:03:40;7.63;;;4.82;;
76417;SDS011;65250;47.602;19.002;2023-03-21T15:06:10;6.43;;;4.87;;
76417;SDS011;65250;47.602;19.002;2023-03-21T15:08:39;6.97;;;4.82;;
76417;SDS011;65250;47.602;19.002;2023-03-21T15:11:07;7.55;;;4.57;;
76417;SDS011;65250;47.602;19.002;2023-03-21T15:13:39;8.98;;;4.65;;
76417;SDS011;65250;47.602;19.002;2023-03-21T15:16:11;5.35;;;4.68;;
76417;SDS011;65250;47.602;19.002;2023-03-21T15:18:40;6.27;;;4.83;;
76417;SDS011;65250;47.602;19.002;2023-03-21T15:21:09;7.85;;;4.97;;
76417;SDS011;65250;47.602;19.002;2023-03-21T15:23:39;6.03;;;4.70;;
76417;SDS011;65250;47.602;19.002;2023-03-21T15:26:14;9.43;;;4.95;;
76417;SDS011;65250;47.602;19.002;2023-03-21T15:28:43;8.13;;;4.55;;
76417;SDS011;65250;47.602;19.002;2023-03-21T15:31:19;9.20;;;4.90;;
76417;SDS011;65250;47.602;19.002;2023-03-21T15:33:47;13.35;;;5.30;;
76417;SDS011;65250;47.602;19.002;2023-03-21T15:36:18;10.20;;;5.10;;
76417;SDS011;65250;47.602;19.002;2023-03-21T15:38:47;6.20;;;4.65;;
76417;SDS011;65250;47.602;19.002;2023-03-21T15:43:53;5.93;;;3.80;;
76417;SDS011;65250;47.602;19.002;2023-03-21T15:46:31;4.82;;;3.00;;
76417;SDS011;65250;47.602;19.002;2023-03-21T15:49:33;5.10;;;2.70;;
76417;SDS011;65250;47.602;19.002;2023-03-21T15:54:45;4.78;;;2.60;;
76417;SDS011;65250;47.602;19.002;2023-03-21T15:59:48;7.80;;;2.38;;
76417;SDS011;65250;47.602;19.002;2023-03-21T16:02:15;3.25;;;2.65;;
76417;SDS011;65250;47.602;19.002;2023-03-21T16:05:01;5.03;;;2.80;;
76417;SDS011;65250;47.602;19.002;2023-03-21T16:07:43;3.22;;;2.80;;
76417;SDS011;65250;47.602;19.002;2023-03-21T16:10:44;9.47;;;3.07;;
76417;SDS011;65250;47.602;19.002;2023-03-21T16:13:04;9.10;;;3.15;;
76417;SDS011;65250;47.602;19.002;2023-03-21T16:15:32;5.03;;;3.28;;
76417;SDS011;65250;47.602;19.002;2023-03-21T16:17:59;5.38;;;3.50;;
76417;SDS011;65250;47.602;19.002;2023-03-21T16:20:28;3.70;;;3.33;;
76417;SDS011;65250;47.602;19.002;2023-03-21T16:23:15;5.47;;;3.50;;
76417;SDS011;65250;47.602;19.002;2023-03-21T16:25:42;4.22;;;3.65;;
76417;SDS011;65250;47.602;19.002;2023-03-21T16:28:15;4.13;;;3.13;;
76417;SDS011;65250;47.602;19.002;2023-03-21T16:30:43;5.72;;;3.55;;
76417;SDS011;65250;47.602;19.002;2023-03-21T16:33:10;5.15;;;3.00;;
76417;SDS011;65250;47.602;19.002;2023-03-21T16:35:38;4.80;;;3.37;;
76417;SDS011;65250;47.602;19.002;2023-03-21T16:38:05;5.60;;;3.58;;
76417;SDS011;65250;47.602;19.002;2023-03-21T16:40:36;6.90;;;3.58;;
76417;SDS011;65250;47.602;19.002;2023-03-21T16:43:05;6.40;;;3.72;;
76417;SDS011;65250;47.602;19.002;2023-03-21T16:45:32;9.05;;;3.58;;
76417;SDS011;65250;47.602;19.002;2023-03-21T16:48:00;8.83;;;3.17;;
76417;SDS011;65250;47.602;19.002;2023-03-21T16:52:55;4.30;;;2.92;;
76417;SDS011;65250;47.602;19.002;2023-03-21T16:55:22;4.13;;;3.45;;
76417;SDS011;65250;47.602;19.002;2023-03-21T16:57:50;6.82;;;4.03;;
76417;SDS011;65250;47.602;19.002;2023-03-21T17:00:22;4.20;;;3.60;;
76417;SDS011;65250;47.602;19.002;2023-03-21T17:02:52;6.40;;;3.60;;
76417;SDS011;65250;47.602;19.002;2023-03-21T17:05:23;7.70;;;3.30;;
76417;SDS011;65250;47.602;19.002;2023-03-21T17:07:52;4.32;;;3.10;;
76417;SDS011;65250;47.602;19.002;2023-03-21T17:10:21;8.32;;;3.25;;
76417;SDS011;65250;47.602;19.002;2023-03-21T17:12:49;7.67;;;3.80;;
76417;SDS011;65250;47.602;19.002;2023-03-21T17:15:16;6.07;;;3.75;;
76417;SDS011;65250;47.602;19.002;2023-03-21T17:17:43;6.13;;;4.00;;
76417;SDS011;65250;47.602;19.002;2023-03-21T17:20:20;7.10;;;4.00;;
76417;SDS011;65250;47.602;19.002;2023-03-21T17:22:53;6.25;;;3.13;;
76417;SDS011;65250;47.602;19.002;2023-03-21T17:25:20;5.83;;;3.10;;
76417;SDS011;65250;47.602;19.002;2023-03-21T17:27:47;10.43;;;4.32;;
76417;SDS011;65250;47.602;19.002;2023-03-21T17:30:25;11.00;;;4.20;;
76417;SDS011;65250;47.602;19.002;2023-03-21T17:32:57;7.35;;;3.95;;
76417;SDS011;65250;47.602;19.002;2023-03-21T17:35:24;5.07;;;4.00;;